sensor_id;sensor_type;location;lat;lon;timestamp;P1;durP1;ratioP1;P2;durP2;ratioP2
74945;SDS011;63509;45.250;38.102;2023-02-28T00:00:20;7.40;;;3.40;;
74945;SDS011;63509;45.250;38.102;2023-02-28T00:02:47;7.85;;;3.58;;
74945;SDS011;63509;45.250;38.102;2023-02-28T00:05:15;7.43;;;3.92;;
74945;SDS011;63509;45.250;38.102;2023-02-28T00:07:42;8.35;;;3.78;;
74945;SDS011;63509;45.250;38.102;2023-02-28T00:10:10;8.18;;;4.32;;
74945;SDS011;63509;45.250;38.102;2023-02-28T00:12:37;8.82;;;4.00;;
74945;SDS011;63509;45.250;38.102;2023-02-28T00:15:07;10.55;;;4.20;;
74945;SDS011;63509;45.250;38.102;2023-02-28T00:17:35;19.73;;;4.85;;
74945;SDS011;63509;45.250;38.102;2023-02-28T00:20:02;12.60;;;4.30;;
74945;SDS011;63509;45.250;38.102;2023-02-28T00:22:29;8.85;;;4.63;;
74945;SDS011;63509;45.250;38.102;2023-02-28T00:24:56;9.45;;;3.83;;
74945;SDS011;63509;45.250;38.102;2023-02-28T00:27:22;8.80;;;3.45;;
74945;SDS011;63509;45.250;38.102;2023-02-28T00:29:47;7.05;;;3.90;;
74945;SDS011;63509;45.250;38.102;2023-02-28T00:32:13;12.18;;;4.70;;
74945;SDS011;63509;45.250;38.102;2023-02-28T00:34:39;11.85;;;4.40;;
74945;SDS011;63509;45.250;38.102;2023-02-28T00:37:08;8.25;;;4.18;;
74945;SDS011;63509;45.250;38.102;2023-02-28T00:39:37;7.20;;;3.63;;
74945;SDS011;63509;45.250;38.102;2023-02-28T00:42:04;10.90;;;4.93;;
74945;SDS011;63509;45.250;38.102;2023-02-28T00:44:31;10.05;;;5.53;;
74945;SDS011;63509;45.250;38.102;2023-02-28T00:46:57;11.23;;;5.78;;
74945;SDS011;63509;45.250;38.102;2023-02-28T00:49:24;9.98;;;5.80;;
74945;SDS011;63509;45.250;38.102;2023-02-28T00:51:51;14.38;;;6.15;;
74945;SDS011;63509;45.250;38.102;2023-02-28T00:54:18;13.10;;;5.80;;
74945;SDS011;63509;45.250;38.102;2023-02-28T00:56:46;10.43;;;5.63;;
74945;SDS011;63509;45.250;38.102;2023-02-28T00:59:13;12.40;;;5.80;;
74945;SDS011;63509;45.250;38.102;2023-02-28T01:01:40;13.95;;;6.35;;
74945;SDS011;63509;45.250;38.102;2023-02-28T01:04:07;12.50;;;5.32;;
74945;SDS011;63509;45.250;38.102;2023-02-28T01:06:34;10.43;;;5.20;;
74945;SDS011;63509;45.250;38.102;2023-02-28T01:09:02;10.35;;;4.60;;
74945;SDS011;63509;45.250;38.102;2023-02-28T01:11:28;9.80;;;4.47;;
74945;SDS011;63509;45.250;38.102;2023-02-28T01:13:55;11.63;;;4.32;;
74945;SDS011;63509;45.250;38.102;2023-02-28T01:16:21;13.60;;;4.45;;
74945;SDS011;63509;45.250;38.102;2023-02-28T01:18:47;8.35;;;4.00;;
74945;SDS011;63509;45.250;38.102;2023-02-28T01:21:14;23.52;;;5.65;;
74945;SDS011;63509;45.250;38.102;2023-02-28T01:23:43;7.63;;;4.50;;
74945;SDS011;63509;45.250;38.102;2023-02-28T01:26:14;10.98;;;4.55;;
74945;SDS011;63509;45.250;38.102;2023-02-28T01:28:42;8.55;;;4.60;;
74945;SDS011;63509;45.250;38.102;2023-02-28T01:31:08;9.90;;;4.85;;
74945;SDS011;63509;45.250;38.102;2023-02-28T01:33:36;10.52;;;4.20;;
74945;SDS011;63509;45.250;38.102;2023-02-28T01:36:08;7.30;;;3.53;;
74945;SDS011;63509;45.250;38.102;2023-02-28T01:38:37;15.05;;;4.97;;
74945;SDS011;63509;45.250;38.102;2023-02-28T01:41:03;8.30;;;4.30;;
74945;SDS011;63509;45.250;38.102;2023-02-28T01:43:31;14.70;;;5.03;;
74945;SDS011;63509;45.250;38.102;2023-02-28T01:46:17;14.27;;;4.95;;
74945;SDS011;63509;45.250;38.102;2023-02-28T01:51:51;6.72;;;4.20;;
74945;SDS011;63509;45.250;38.102;2023-02-28T01:54:27;8.23;;;4.03;;
74945;SDS011;63509;45.250;38.102;2023-02-28T01:57:13;10.80;;;4.28;;
74945;SDS011;63509;45.250;38.102;2023-02-28T01:59:43;11.55;;;4.53;;
74945;SDS011;63509;45.250;38.102;2023-02-28T02:02:16;12.02;;;4.78;;
74945;SDS011;63509;45.250;38.102;2023-02-28T02:05:07;10.20;;;4.07;;
74945;SDS011;63509;45.250;38.102;2023-02-28T02:07:37;9.98;;;4.53;;
74945;SDS011;63509;45.250;38.102;2023-02-28T02:15:40;12.75;;;4.28;;
74945;SDS011;63509;45.250;38.102;2023-02-28T02:21:02;14.60;;;4.70;;
74945;SDS011;63509;45.250;38.102;2023-02-28T02:23:48;10.00;;;4.50;;
74945;SDS011;63509;45.250;38.102;2023-02-28T02:26:44;8.63;;;4.57;;
74945;SDS011;63509;45.250;38.102;2023-02-28T02:40:20;13.55;;;4.53;;
74945;SDS011;63509;45.250;38.102;2023-02-28T02:45:55;8.68;;;3.80;;
74945;SDS011;63509;45.250;38.102;2023-02-28T02:48:30;11.40;;;5.00;;
74945;SDS011;63509;45.250;38.102;2023-02-28T02:51:01;8.57;;;4.65;;
74945;SDS011;63509;45.250;38.102;2023-02-28T02:53:49;10.88;;;4.22;;
74945;SDS011;63509;45.250;38.102;2023-02-28T02:56:24;11.77;;;5.00;;
74945;SDS011;63509;45.250;38.102;2023-02-28T02:58:56;28.95;;;8.82;;
74945;SDS011;63509;45.250;38.102;2023-02-28T03:01:25;16.52;;;5.82;;
74945;SDS011;63509;45.250;38.102;2023-02-28T03:03:54;14.18;;;4.22;;
74945;SDS011;63509;45.250;38.102;2023-02-28T03:06:27;12.25;;;4.72;;
74945;SDS011;63509;45.250;38.102;2023-02-28T03:08:53;12.43;;;4.43;;
74945;SDS011;63509;45.250;38.102;2023-02-28T03:11:21;12.02;;;4.90;;
74945;SDS011;63509;45.250;38.102;2023-02-28T03:16:40;10.40;;;4.97;;
74945;SDS011;63509;45.250;38.102;2023-02-28T03:19:31;13.55;;;4.82;;
74945;SDS011;63509;45.250;38.102;2023-02-28T03:25:12;10.38;;;5.05;;
74945;SDS011;63509;45.250;38.102;2023-02-28T03:30:30;9.98;;;4.70;;
74945;SDS011;63509;45.250;38.102;2023-02-28T03:33:14;12.98;;;5.22;;
74945;SDS011;63509;45.250;38.102;2023-02-28T03:38:46;18.73;;;5.38;;
74945;SDS011;63509;45.250;38.102;2023-02-28T03:43:50;19.08;;;6.22;;
74945;SDS011;63509;45.250;38.102;2023-02-28T03:46:25;19.25;;;5.72;;
74945;SDS011;63509;45.250;38.102;2023-02-28T03:49:16;21.27;;;6.35;;
74945;SDS011;63509;45.250;38.102;2023-02-28T03:51:42;21.48;;;6.43;;
74945;SDS011;63509;45.250;38.102;2023-02-28T03:56:43;21.45;;;6.72;;
74945;SDS011;63509;45.250;38.102;2023-02-28T04:02:09;11.50;;;7.40;;
74945;SDS011;63509;45.250;38.102;2023-02-28T04:04:35;14.32;;;7.05;;
74945;SDS011;63509;45.250;38.102;2023-02-28T04:07:06;21.02;;;7.22;;
74945;SDS011;63509;45.250;38.102;2023-02-28T04:09:34;38.63;;;9.10;;
74945;SDS011;63509;45.250;38.102;2023-02-28T04:12:00;24.60;;;8.05;;
74945;SDS011;63509;45.250;38.102;2023-02-28T04:14:26;37.88;;;8.85;;
74945;SDS011;63509;45.250;38.102;2023-02-28T04:16:52;24.73;;;8.27;;
74945;SDS011;63509;45.250;38.102;2023-02-28T04:19:18;34.85;;;8.77;;
74945;SDS011;63509;45.250;38.102;2023-02-28T04:21:46;22.13;;;6.70;;
74945;SDS011;63509;45.250;38.102;2023-02-28T04:24:20;41.08;;;7.85;;
74945;SDS011;63509;45.250;38.102;2023-02-28T04:26:49;18.90;;;6.90;;
74945;SDS011;63509;45.250;38.102;2023-02-28T04:31:49;18.95;;;6.35;;
74945;SDS011;63509;45.250;38.102;2023-02-28T04:34:15;23.50;;;7.03;;
74945;SDS011;63509;45.250;38.102;2023-02-28T04:36:42;21.90;;;6.47;;
74945;SDS011;63509;45.250;38.102;2023-02-28T04:39:08;23.65;;;6.63;;
74945;SDS011;63509;45.250;38.102;2023-02-28T04:41:35;17.20;;;6.50;;
74945;SDS011;63509;45.250;38.102;2023-02-28T04:44:01;24.90;;;7.30;;
74945;SDS011;63509;45.250;38.102;2023-02-28T04:46:27;18.80;;;6.28;;
74945;SDS011;63509;45.250;38.102;2023-02-28T04:48:53;14.52;;;6.60;;
74945;SDS011;63509;45.250;38.102;2023-02-28T04:51:19;18.55;;;7.72;;
74945;SDS011;63509;45.250;38.102;2023-02-28T04:53:46;15.45;;;6.20;;
74945;SDS011;63509;45.250;38.102;2023-02-28T04:56:12;16.27;;;5.38;;
74945;SDS011;63509;45.250;38.102;2023-02-28T04:58:40;24.52;;;6.70;;
74945;SDS011;63509;45.250;38.102;2023-02-28T05:01:15;17.58;;;5.90;;
74945;SDS011;63509;45.250;38.102;2023-02-28T05:03:50;17.50;;;6.35;;
74945;SDS011;63509;45.250;38.102;2023-02-28T05:06:17;23.08;;;5.45;;
74945;SDS011;63509;45.250;38.102;2023-02-28T05:08:44;15.27;;;5.55;;
74945;SDS011;63509;45.250;38.102;2023-02-28T05:11:14;18.90;;;6.05;;
74945;SDS011;63509;45.250;38.102;2023-02-28T05:13:48;21.88;;;5.63;;
74945;SDS011;63509;45.250;38.102;2023-02-28T05:16:15;15.75;;;5.55;;
74945;SDS011;63509;45.250;38.102;2023-02-28T05:18:41;15.77;;;5.40;;
74945;SDS011;63509;45.250;38.102;2023-02-28T05:21:22;16.83;;;5.03;;
74945;SDS011;63509;45.250;38.102;2023-02-28T05:23:57;18.95;;;5.85;;
74945;SDS011;63509;45.250;38.102;2023-02-28T05:26:24;15.05;;;5.15;;
74945;SDS011;63509;45.250;38.102;2023-02-28T05:28:51;18.45;;;7.85;;
74945;SDS011;63509;45.250;38.102;2023-02-28T05:31:17;15.05;;;5.40;;
74945;SDS011;63509;45.250;38.102;2023-02-28T05:33:44;12.52;;;6.03;;
74945;SDS011;63509;45.250;38.102;2023-02-28T05:36:10;17.80;;;5.97;;
74945;SDS011;63509;45.250;38.102;2023-02-28T05:38:36;15.77;;;5.18;;
74945;SDS011;63509;45.250;38.102;2023-02-28T05:41:09;19.25;;;6.57;;
74945;SDS011;63509;45.250;38.102;2023-02-28T05:43:36;13.65;;;5.25;;
74945;SDS011;63509;45.250;38.102;2023-02-28T05:46:06;15.10;;;6.45;;
74945;SDS011;63509;45.250;38.102;2023-02-28T05:48:34;19.50;;;7.50;;
74945;SDS011;63509;45.250;38.102;2023-02-28T05:51:02;25.77;;;6.57;;
74945;SDS011;63509;45.250;38.102;2023-02-28T05:53:29;17.30;;;6.18;;
74945;SDS011;63509;45.250;38.102;2023-02-28T05:55:56;12.85;;;7.13;;
74945;SDS011;63509;45.250;38.102;2023-02-28T05:58:22;16.13;;;6.82;;
74945;SDS011;63509;45.250;38.102;2023-02-28T06:00:50;15.00;;;6.50;;
74945;SDS011;63509;45.250;38.102;2023-02-28T06:03:17;15.95;;;6.03;;
74945;SDS011;63509;45.250;38.102;2023-02-28T06:05:42;17.23;;;6.97;;
74945;SDS011;63509;45.250;38.102;2023-02-28T06:08:08;16.05;;;6.68;;
74945;SDS011;63509;45.250;38.102;2023-02-28T06:10:35;21.05;;;7.60;;
74945;SDS011;63509;45.250;38.102;2023-02-28T06:13:01;19.10;;;7.00;;
74945;SDS011;63509;45.250;38.102;2023-02-28T06:15:28;16.70;;;6.47;;
74945;SDS011;63509;45.250;38.102;2023-02-28T06:17:55;17.05;;;6.90;;
74945;SDS011;63509;45.250;38.102;2023-02-28T06:20:22;11.73;;;6.30;;
74945;SDS011;63509;45.250;38.102;2023-02-28T06:22:49;12.18;;;5.90;;
74945;SDS011;63509;45.250;38.102;2023-02-28T06:25:19;16.40;;;6.60;;
74945;SDS011;63509;45.250;38.102;2023-02-28T06:27:45;18.25;;;6.03;;
74945;SDS011;63509;45.250;38.102;2023-02-28T06:30:14;14.73;;;6.25;;
74945;SDS011;63509;45.250;38.102;2023-02-28T06:32:40;16.50;;;6.20;;
74945;SDS011;63509;45.250;38.102;2023-02-28T06:35:06;16.33;;;4.80;;
74945;SDS011;63509;45.250;38.102;2023-02-28T06:37:33;8.27;;;5.03;;
74945;SDS011;63509;45.250;38.102;2023-02-28T06:39:59;11.30;;;5.47;;
74945;SDS011;63509;45.250;38.102;2023-02-28T06:42:25;10.98;;;6.15;;
74945;SDS011;63509;45.250;38.102;2023-02-28T06:44:54;10.43;;;4.75;;
74945;SDS011;63509;45.250;38.102;2023-02-28T06:47:21;10.38;;;4.75;;
74945;SDS011;63509;45.250;38.102;2023-02-28T06:49:47;8.38;;;5.15;;
74945;SDS011;63509;45.250;38.102;2023-02-28T06:52:14;12.07;;;5.30;;
74945;SDS011;63509;45.250;38.102;2023-02-28T06:54:40;12.50;;;5.72;;
74945;SDS011;63509;45.250;38.102;2023-02-28T06:57:06;10.02;;;5.85;;
74945;SDS011;63509;45.250;38.102;2023-02-28T06:59:32;9.38;;;6.15;;
74945;SDS011;63509;45.250;38.102;2023-02-28T07:02:00;11.60;;;6.18;;
74945;SDS011;63509;45.250;38.102;2023-02-28T07:04:27;9.93;;;6.30;;
74945;SDS011;63509;45.250;38.102;2023-02-28T07:06:54;9.25;;;5.20;;
74945;SDS011;63509;45.250;38.102;2023-02-28T07:09:22;14.73;;;5.70;;
74945;SDS011;63509;45.250;38.102;2023-02-28T07:11:48;8.77;;;5.55;;
74945;SDS011;63509;45.250;38.102;2023-02-28T07:14:14;9.65;;;4.93;;
74945;SDS011;63509;45.250;38.102;2023-02-28T07:16:40;9.88;;;5.35;;
74945;SDS011;63509;45.250;38.102;2023-02-28T07:19:06;11.45;;;5.85;;
74945;SDS011;63509;45.250;38.102;2023-02-28T07:21:32;10.75;;;5.32;;
74945;SDS011;63509;45.250;38.102;2023-02-28T07:23:58;13.90;;;5.93;;
74945;SDS011;63509;45.250;38.102;2023-02-28T07:26:24;9.57;;;5.25;;
74945;SDS011;63509;45.250;38.102;2023-02-28T07:28:50;12.75;;;6.30;;
74945;SDS011;63509;45.250;38.102;2023-02-28T07:31:16;11.65;;;5.65;;
74945;SDS011;63509;45.250;38.102;2023-02-28T07:33:43;9.40;;;5.57;;
74945;SDS011;63509;45.250;38.102;2023-02-28T07:36:11;14.43;;;5.80;;
74945;SDS011;63509;45.250;38.102;2023-02-28T07:38:41;10.38;;;6.13;;
74945;SDS011;63509;45.250;38.102;2023-02-28T07:41:08;10.05;;;5.78;;
74945;SDS011;63509;45.250;38.102;2023-02-28T07:43:35;13.15;;;6.18;;
74945;SDS011;63509;45.250;38.102;2023-02-28T07:46:03;11.43;;;6.00;;
74945;SDS011;63509;45.250;38.102;2023-02-28T07:48:30;17.35;;;6.75;;
74945;SDS011;63509;45.250;38.102;2023-02-28T07:50:57;15.27;;;6.97;;
74945;SDS011;63509;45.250;38.102;2023-02-28T07:53:24;12.77;;;6.60;;
74945;SDS011;63509;45.250;38.102;2023-02-28T07:55:51;11.18;;;6.28;;
74945;SDS011;63509;45.250;38.102;2023-02-28T07:58:19;15.40;;;6.30;;
74945;SDS011;63509;45.250;38.102;2023-02-28T08:00:45;11.70;;;6.55;;
74945;SDS011;63509;45.250;38.102;2023-02-28T08:03:12;14.50;;;6.35;;
74945;SDS011;63509;45.250;38.102;2023-02-28T08:05:39;13.50;;;6.40;;
74945;SDS011;63509;45.250;38.102;2023-02-28T08:08:05;14.07;;;6.75;;
74945;SDS011;63509;45.250;38.102;2023-02-28T08:10:32;10.18;;;6.30;;
74945;SDS011;63509;45.250;38.102;2023-02-28T08:12:59;13.73;;;6.25;;
74945;SDS011;63509;45.250;38.102;2023-02-28T08:15:25;12.30;;;6.22;;
74945;SDS011;63509;45.250;38.102;2023-02-28T08:17:51;15.80;;;6.22;;
74945;SDS011;63509;45.250;38.102;2023-02-28T08:20:18;15.20;;;6.75;;
74945;SDS011;63509;45.250;38.102;2023-02-28T08:22:44;14.73;;;7.35;;
74945;SDS011;63509;45.250;38.102;2023-02-28T08:25:10;11.50;;;5.93;;
74945;SDS011;63509;45.250;38.102;2023-02-28T08:27:36;12.95;;;6.28;;
74945;SDS011;63509;45.250;38.102;2023-02-28T08:30:03;14.05;;;6.50;;
74945;SDS011;63509;45.250;38.102;2023-02-28T08:32:29;22.65;;;6.20;;
74945;SDS011;63509;45.250;38.102;2023-02-28T08:34:57;15.05;;;7.40;;
74945;SDS011;63509;45.250;38.102;2023-02-28T08:37:23;13.40;;;7.05;;
74945;SDS011;63509;45.250;38.102;2023-02-28T08:39:49;13.70;;;7.38;;
74945;SDS011;63509;45.250;38.102;2023-02-28T08:42:15;15.32;;;8.43;;
74945;SDS011;63509;45.250;38.102;2023-02-28T08:44:41;12.07;;;8.35;;
74945;SDS011;63509;45.250;38.102;2023-02-28T08:47:07;13.82;;;8.00;;
74945;SDS011;63509;45.250;38.102;2023-02-28T08:49:33;12.52;;;6.70;;
74945;SDS011;63509;45.250;38.102;2023-02-28T08:51:59;10.95;;;5.97;;
74945;SDS011;63509;45.250;38.102;2023-02-28T08:54:25;12.13;;;6.32;;
74945;SDS011;63509;45.250;38.102;2023-02-28T08:56:54;9.98;;;6.15;;
74945;SDS011;63509;45.250;38.102;2023-02-28T08:59:20;17.02;;;6.63;;
74945;SDS011;63509;45.250;38.102;2023-02-28T09:01:46;12.93;;;6.65;;
74945;SDS011;63509;45.250;38.102;2023-02-28T09:04:12;14.75;;;7.32;;
74945;SDS011;63509;45.250;38.102;2023-02-28T09:06:38;13.57;;;6.68;;
74945;SDS011;63509;45.250;38.102;2023-02-28T09:09:04;11.77;;;6.25;;
74945;SDS011;63509;45.250;38.102;2023-02-28T09:11:33;13.52;;;7.63;;
74945;SDS011;63509;45.250;38.102;2023-02-28T09:14:00;14.90;;;7.80;;
74945;SDS011;63509;45.250;38.102;2023-02-28T09:16:29;14.32;;;7.75;;
74945;SDS011;63509;45.250;38.102;2023-02-28T09:18:56;12.43;;;7.80;;
74945;SDS011;63509;45.250;38.102;2023-02-28T09:21:22;12.90;;;6.82;;
74945;SDS011;63509;45.250;38.102;2023-02-28T09:23:49;14.30;;;7.78;;
74945;SDS011;63509;45.250;38.102;2023-02-28T09:26:21;14.35;;;6.63;;
74945;SDS011;63509;45.250;38.102;2023-02-28T09:28:49;12.27;;;6.57;;
74945;SDS011;63509;45.250;38.102;2023-02-28T09:31:20;14.88;;;7.47;;
74945;SDS011;63509;45.250;38.102;2023-02-28T09:33:51;16.30;;;6.90;;
74945;SDS011;63509;45.250;38.102;2023-02-28T09:36:19;14.25;;;7.15;;
74945;SDS011;63509;45.250;38.102;2023-02-28T09:38:46;18.05;;;7.35;;
74945;SDS011;63509;45.250;38.102;2023-02-28T09:41:16;16.33;;;8.35;;
74945;SDS011;63509;45.250;38.102;2023-02-28T09:43:47;19.42;;;9.02;;
74945;SDS011;63509;45.250;38.102;2023-02-28T09:49:00;17.20;;;8.65;;
74945;SDS011;63509;45.250;38.102;2023-02-28T09:54:21;19.23;;;8.27;;
74945;SDS011;63509;45.250;38.102;2023-02-28T09:59:38;14.65;;;7.32;;
74945;SDS011;63509;45.250;38.102;2023-02-28T10:04:58;15.15;;;8.02;;
74945;SDS011;63509;45.250;38.102;2023-02-28T10:10:14;15.73;;;7.72;;
74945;SDS011;63509;45.250;38.102;2023-02-28T10:12:44;14.35;;;7.32;;
74945;SDS011;63509;45.250;38.102;2023-02-28T10:15:15;15.10;;;7.00;;
74945;SDS011;63509;45.250;38.102;2023-02-28T10:17:43;12.50;;;6.47;;
74945;SDS011;63509;45.250;38.102;2023-02-28T10:20:20;14.88;;;6.90;;
74945;SDS011;63509;45.250;38.102;2023-02-28T10:25:58;11.55;;;6.45;;
74945;SDS011;63509;45.250;38.102;2023-02-28T10:28:29;13.02;;;7.18;;
74945;SDS011;63509;45.250;38.102;2023-02-28T10:30:56;14.60;;;6.72;;
74945;SDS011;63509;45.250;38.102;2023-02-28T10:33:25;13.35;;;6.35;;
74945;SDS011;63509;45.250;38.102;2023-02-28T10:35:58;17.27;;;8.07;;
74945;SDS011;63509;45.250;38.102;2023-02-28T10:38:31;20.33;;;8.20;;
74945;SDS011;63509;45.250;38.102;2023-02-28T10:43:40;22.65;;;7.45;;
74945;SDS011;63509;45.250;38.102;2023-02-28T10:48:43;19.75;;;7.55;;
74945;SDS011;63509;45.250;38.102;2023-02-28T10:51:18;19.92;;;8.13;;
74945;SDS011;63509;45.250;38.102;2023-02-28T10:53:47;20.10;;;8.25;;
74945;SDS011;63509;45.250;38.102;2023-02-28T10:56:17;16.20;;;8.30;;
74945;SDS011;63509;45.250;38.102;2023-02-28T10:58:57;19.98;;;8.52;;
74945;SDS011;63509;45.250;38.102;2023-02-28T11:01:38;18.60;;;9.32;;
74945;SDS011;63509;45.250;38.102;2023-02-28T11:04:38;23.45;;;11.15;;
74945;SDS011;63509;45.250;38.102;2023-02-28T11:07:02;25.35;;;9.88;;
74945;SDS011;63509;45.250;38.102;2023-02-28T11:09:33;24.45;;;9.48;;
74945;SDS011;63509;45.250;38.102;2023-02-28T11:12:00;20.95;;;9.80;;
74945;SDS011;63509;45.250;38.102;2023-02-28T11:14:35;21.83;;;10.93;;
74945;SDS011;63509;45.250;38.102;2023-02-28T11:17:23;28.67;;;9.13;;
74945;SDS011;63509;45.250;38.102;2023-02-28T11:19:52;20.42;;;9.27;;
74945;SDS011;63509;45.250;38.102;2023-02-28T11:22:43;19.45;;;9.65;;
74945;SDS011;63509;45.250;38.102;2023-02-28T11:25:24;22.23;;;10.05;;
74945;SDS011;63509;45.250;38.102;2023-02-28T11:27:54;22.15;;;9.95;;
74945;SDS011;63509;45.250;38.102;2023-02-28T11:30:23;22.25;;;9.05;;
74945;SDS011;63509;45.250;38.102;2023-02-28T11:32:51;19.52;;;8.93;;
74945;SDS011;63509;45.250;38.102;2023-02-28T11:35:18;20.20;;;8.65;;
74945;SDS011;63509;45.250;38.102;2023-02-28T11:37:49;22.38;;;8.88;;
74945;SDS011;63509;45.250;38.102;2023-02-28T11:40:19;26.10;;;9.98;;
74945;SDS011;63509;45.250;38.102;2023-02-28T11:43:01;22.52;;;9.40;;
74945;SDS011;63509;45.250;38.102;2023-02-28T11:46:38;25.65;;;10.70;;
74945;SDS011;63509;45.250;38.102;2023-02-28T11:51:27;24.08;;;11.48;;
74945;SDS011;63509;45.250;38.102;2023-02-28T11:56:37;28.15;;;12.82;;
74945;SDS011;63509;45.250;38.102;2023-02-28T12:05:10;23.08;;;12.45;;
74945;SDS011;63509;45.250;38.102;2023-02-28T12:07:56;24.80;;;11.30;;
74945;SDS011;63509;45.250;38.102;2023-02-28T12:13:20;28.10;;;10.43;;
74945;SDS011;63509;45.250;38.102;2023-02-28T12:26:54;31.20;;;14.05;;
74945;SDS011;63509;45.250;38.102;2023-02-28T12:32:09;35.13;;;17.17;;
74945;SDS011;63509;45.250;38.102;2023-02-28T12:34:38;46.47;;;23.08;;
74945;SDS011;63509;45.250;38.102;2023-02-28T12:37:10;42.90;;;24.02;;
74945;SDS011;63509;45.250;38.102;2023-02-28T12:39:48;46.08;;;24.02;;
74945;SDS011;63509;45.250;38.102;2023-02-28T12:42:30;36.58;;;22.30;;
74945;SDS011;63509;45.250;38.102;2023-02-28T12:45:01;44.13;;;22.25;;
74945;SDS011;63509;45.250;38.102;2023-02-28T12:47:30;45.70;;;22.48;;
74945;SDS011;63509;45.250;38.102;2023-02-28T12:50:00;37.28;;;20.00;;
74945;SDS011;63509;45.250;38.102;2023-02-28T12:55:23;42.72;;;16.80;;
74945;SDS011;63509;45.250;38.102;2023-02-28T12:58:20;40.15;;;20.85;;
74945;SDS011;63509;45.250;38.102;2023-02-28T13:03:45;36.10;;;16.25;;
74945;SDS011;63509;45.250;38.102;2023-02-28T13:09:14;44.15;;;17.98;;
74945;SDS011;63509;45.250;38.102;2023-02-28T13:11:51;34.30;;;17.52;;
74945;SDS011;63509;45.250;38.102;2023-02-28T13:14:29;43.97;;;20.10;;
74945;SDS011;63509;45.250;38.102;2023-02-28T13:17:03;34.05;;;20.83;;
74945;SDS011;63509;45.250;38.102;2023-02-28T13:22:18;37.38;;;19.65;;
74945;SDS011;63509;45.250;38.102;2023-02-28T13:24:53;37.85;;;18.52;;
74945;SDS011;63509;45.250;38.102;2023-02-28T13:29:57;46.25;;;21.15;;
74945;SDS011;63509;45.250;38.102;2023-02-28T13:39:52;38.83;;;20.08;;
74945;SDS011;63509;45.250;38.102;2023-02-28T13:42:22;38.47;;;19.63;;
74945;SDS011;63509;45.250;38.102;2023-02-28T13:58:56;21.65;;;7.25;;
74945;SDS011;63509;45.250;38.102;2023-02-28T14:07:07;20.98;;;8.30;;
74945;SDS011;63509;45.250;38.102;2023-02-28T14:09:44;21.17;;;9.90;;
74945;SDS011;63509;45.250;38.102;2023-02-28T14:18:21;21.73;;;11.10;;
74945;SDS011;63509;45.250;38.102;2023-02-28T14:20:55;27.42;;;10.35;;
74945;SDS011;63509;45.250;38.102;2023-02-28T14:23:55;13.50;;;7.15;;
74945;SDS011;63509;45.250;38.102;2023-02-28T14:34:43;12.55;;;6.93;;
74945;SDS011;63509;45.250;38.102;2023-02-28T14:37:30;13.73;;;5.75;;
74945;SDS011;63509;45.250;38.102;2023-02-28T14:39:59;13.40;;;6.40;;
74945;SDS011;63509;45.250;38.102;2023-02-28T14:42:34;13.57;;;6.13;;
74945;SDS011;63509;45.250;38.102;2023-02-28T14:45:03;18.92;;;8.32;;
74945;SDS011;63509;45.250;38.102;2023-02-28T14:47:33;18.52;;;7.68;;
74945;SDS011;63509;45.250;38.102;2023-02-28T14:50:02;21.02;;;7.30;;
74945;SDS011;63509;45.250;38.102;2023-02-28T14:52:30;15.68;;;8.40;;
74945;SDS011;63509;45.250;38.102;2023-02-28T14:54:59;11.80;;;6.80;;
74945;SDS011;63509;45.250;38.102;2023-02-28T14:57:31;15.23;;;7.15;;
74945;SDS011;63509;45.250;38.102;2023-02-28T15:00:14;13.50;;;7.22;;
74945;SDS011;63509;45.250;38.102;2023-02-28T15:02:48;13.63;;;6.20;;
74945;SDS011;63509;45.250;38.102;2023-02-28T15:07:44;13.73;;;5.55;;
74945;SDS011;63509;45.250;38.102;2023-02-28T15:10:22;11.02;;;5.57;;
74945;SDS011;63509;45.250;38.102;2023-02-28T15:13:07;19.13;;;5.82;;
74945;SDS011;63509;45.250;38.102;2023-02-28T15:15:45;11.77;;;4.95;;
74945;SDS011;63509;45.250;38.102;2023-02-28T15:21:12;9.93;;;4.35;;
74945;SDS011;63509;45.250;38.102;2023-02-28T15:23:40;14.55;;;5.40;;
74945;SDS011;63509;45.250;38.102;2023-02-28T15:26:19;11.55;;;4.93;;
74945;SDS011;63509;45.250;38.102;2023-02-28T15:28:51;9.82;;;4.53;;
74945;SDS011;63509;45.250;38.102;2023-02-28T15:31:27;13.85;;;5.05;;
74945;SDS011;63509;45.250;38.102;2023-02-28T15:33:58;8.90;;;4.53;;
74945;SDS011;63509;45.250;38.102;2023-02-28T15:36:32;15.18;;;5.32;;
74945;SDS011;63509;45.250;38.102;2023-02-28T15:39:03;13.90;;;5.60;;
74945;SDS011;63509;45.250;38.102;2023-02-28T15:41:44;13.43;;;5.72;;
74945;SDS011;63509;45.250;38.102;2023-02-28T15:44:14;10.98;;;5.57;;
74945;SDS011;63509;45.250;38.102;2023-02-28T15:46:53;14.27;;;5.43;;
74945;SDS011;63509;45.250;38.102;2023-02-28T15:49:26;11.90;;;4.70;;
74945;SDS011;63509;45.250;38.102;2023-02-28T15:51:55;13.38;;;5.38;;
74945;SDS011;63509;45.250;38.102;2023-02-28T15:54:32;11.35;;;5.43;;
74945;SDS011;63509;45.250;38.102;2023-02-28T15:57:04;15.98;;;7.22;;
74945;SDS011;63509;45.250;38.102;2023-02-28T15:59:34;13.63;;;6.93;;
74945;SDS011;63509;45.250;38.102;2023-02-28T16:02:03;20.00;;;8.05;;
74945;SDS011;63509;45.250;38.102;2023-02-28T16:04:55;17.98;;;7.60;;
74945;SDS011;63509;45.250;38.102;2023-02-28T16:07:34;20.52;;;7.72;;
74945;SDS011;63509;45.250;38.102;2023-02-28T16:10:05;15.52;;;6.75;;
74945;SDS011;63509;45.250;38.102;2023-02-28T16:12:33;18.20;;;7.07;;
74945;SDS011;63509;45.250;38.102;2023-02-28T16:15:03;15.85;;;7.18;;
74945;SDS011;63509;45.250;38.102;2023-02-28T16:17:35;26.15;;;8.13;;
74945;SDS011;63509;45.250;38.102;2023-02-28T16:20:18;16.00;;;8.10;;
74945;SDS011;63509;45.250;38.102;2023-02-28T16:22:46;19.58;;;8.55;;
74945;SDS011;63509;45.250;38.102;2023-02-28T16:25:12;17.98;;;7.43;;
74945;SDS011;63509;45.250;38.102;2023-02-28T16:27:39;16.35;;;8.32;;
74945;SDS011;63509;45.250;38.102;2023-02-28T16:30:07;21.17;;;8.93;;
74945;SDS011;63509;45.250;38.102;2023-02-28T16:32:41;17.02;;;8.70;;
74945;SDS011;63509;45.250;38.102;2023-02-28T16:35:09;24.85;;;10.88;;
74945;SDS011;63509;45.250;38.102;2023-02-28T16:37:36;20.77;;;9.88;;
74945;SDS011;63509;45.250;38.102;2023-02-28T16:40:03;20.90;;;8.73;;
74945;SDS011;63509;45.250;38.102;2023-02-28T16:42:29;20.30;;;9.55;;
74945;SDS011;63509;45.250;38.102;2023-02-28T16:44:56;18.75;;;8.25;;
74945;SDS011;63509;45.250;38.102;2023-02-28T18:32:31;9.05;;;4.90;;
74945;SDS011;63509;45.250;38.102;2023-02-28T18:34:57;7.95;;;4.47;;
74945;SDS011;63509;45.250;38.102;2023-02-28T18:37:23;11.75;;;5.05;;
74945;SDS011;63509;45.250;38.102;2023-02-28T18:39:49;8.52;;;4.72;;
74945;SDS011;63509;45.250;38.102;2023-02-28T18:42:15;11.52;;;4.57;;
74945;SDS011;63509;45.250;38.102;2023-02-28T18:44:41;9.35;;;4.88;;
74945;SDS011;63509;45.250;38.102;2023-02-28T18:47:07;8.02;;;4.55;;
74945;SDS011;63509;45.250;38.102;2023-02-28T18:49:33;10.13;;;5.45;;
74945;SDS011;63509;45.250;38.102;2023-02-28T18:52:00;13.55;;;5.35;;
74945;SDS011;63509;45.250;38.102;2023-02-28T18:54:27;8.60;;;4.68;;
74945;SDS011;63509;45.250;38.102;2023-02-28T18:56:53;9.45;;;4.82;;
74945;SDS011;63509;45.250;38.102;2023-02-28T18:59:20;9.77;;;5.47;;
74945;SDS011;63509;45.250;38.102;2023-02-28T19:01:47;9.30;;;4.68;;